createdAt,value
2019-01-11T00:00:27.530Z,99.99
2019-01-11T00:01:35.578Z,99.99
2019-01-11T00:02:43.657Z,99.99
2019-01-11T00:03:51.690Z,99.99
2019-01-11T00:04:59.756Z,99.99
2019-01-11T00:06:07.799Z,99.99
2019-01-11T00:07:15.859Z,99.99
2019-01-11T00:08:23.909Z,99.99
2019-01-11T00:09:31.961Z,99.99
2019-01-11T00:10:40.045Z,99.99
2019-01-11T00:11:48.076Z,99.99
2019-01-11T00:12:56.130Z,99.99
2019-01-11T00:14:04.314Z,99.99
2019-01-11T00:15:12.646Z,99.99
2019-01-11T00:16:20.754Z,99.99
2019-01-11T00:17:28.352Z,99.99
2019-01-11T00:18:36.405Z,99.99
2019-01-11T00:19:44.465Z,99.99
2019-01-11T00:20:52.529Z,99.99
2019-01-11T00:22:00.562Z,99.99
2019-01-11T00:23:08.608Z,99.99
2019-01-11T00:24:16.707Z,99.99
2019-01-11T00:25:24.718Z,99.99
2019-01-11T00:26:32.779Z,99.99
2019-01-11T00:27:40.823Z,99.99
2019-01-11T00:28:48.932Z,99.99
2019-01-11T00:29:56.950Z,99.99
2019-01-11T00:31:05.039Z,99.99
2019-01-11T00:32:13.052Z,99.99
2019-01-11T00:33:21.092Z,99.99
2019-01-11T00:34:29.147Z,99.99
2019-01-11T00:35:37.223Z,99.99
2019-01-11T00:36:45.259Z,99.99
2019-01-11T00:37:53.366Z,99.99
2019-01-11T00:39:01.354Z,99.99
2019-01-11T00:40:09.423Z,99.99
2019-01-11T00:41:17.481Z,99.99
2019-01-11T00:42:25.538Z,99.99
2019-01-11T00:43:33.584Z,99.99
2019-01-11T00:44:41.627Z,99.99
2019-01-11T00:45:49.696Z,99.99
2019-01-11T00:46:57.801Z,99.99
2019-01-11T00:48:05.806Z,99.99
2019-01-11T00:49:13.881Z,99.99
2019-01-11T00:50:21.910Z,99.99
2019-01-11T00:51:29.960Z,99.99
2019-01-11T00:52:38.017Z,99.99
2019-01-11T00:53:46.122Z,99.99
2019-01-11T00:54:54.126Z,99.99
2019-01-11T00:56:02.178Z,99.99
2019-01-11T00:57:10.237Z,99.99
2019-01-11T00:58:18.323Z,99.99
2019-01-11T00:59:26.361Z,99.99
2019-01-11T01:00:34.401Z,99.99
2019-01-11T01:01:42.448Z,99.99
2019-01-11T01:02:50.554Z,99.99
2019-01-11T01:03:58.555Z,99.99
2019-01-11T01:05:06.608Z,99.99
2019-01-11T01:06:14.663Z,99.99
2019-01-11T01:07:22.758Z,99.99
2019-01-11T01:08:30.745Z,99.99
2019-01-11T01:09:38.810Z,99.99
2019-01-11T01:10:46.879Z,99.99
2019-01-11T01:11:54.973Z,99.99
2019-01-11T01:13:02.973Z,99.99
2019-01-11T01:14:11.055Z,99.99
2019-01-11T01:15:19.077Z,99.99
2019-01-11T01:16:27.137Z,99.99
2019-01-11T01:17:35.191Z,99.99
2019-01-11T01:18:43.253Z,99.99
2019-01-11T01:19:51.278Z,99.99
2019-01-11T01:20:59.378Z,99.99
2019-01-11T01:22:07.394Z,99.99
2019-01-11T01:23:15.445Z,99.99
2019-01-11T01:24:23.509Z,99.99
2019-01-11T01:25:31.561Z,99.99
2019-01-11T01:26:39.612Z,99.99
2019-01-11T01:27:47.656Z,99.99
2019-01-11T01:28:55.700Z,99.99
2019-01-11T01:30:03.771Z,99.99
2019-01-11T01:31:11.821Z,99.99
2019-01-11T01:32:19.870Z,99.99
2019-01-11T01:33:27.913Z,99.99
2019-01-11T01:34:35.961Z,99.99
2019-01-11T01:35:44.028Z,99.99
2019-01-11T01:36:52.087Z,99.99
2019-01-11T01:38:00.131Z,99.99
2019-01-11T01:39:08.179Z,99.99
2019-01-11T01:40:16.240Z,99.99
2019-01-11T01:41:24.280Z,99.99
2019-01-11T01:42:32.329Z,99.99
2019-01-11T01:43:40.380Z,99.99
2019-01-11T01:44:48.540Z,99.99
2019-01-11T01:45:56.485Z,99.99
2019-01-11T01:47:04.537Z,99.99
2019-01-11T01:48:12.592Z,99.99
2019-01-11T01:49:26.350Z,99.99
2019-01-11T01:50:28.685Z,99.99
2019-01-11T01:51:36.749Z,99.99
2019-01-11T01:52:44.792Z,99.99
2019-01-11T01:53:52.847Z,99.99
2019-01-11T01:55:00.871Z,99.99
2019-01-11T01:56:08.950Z,99.99
2019-01-11T01:57:17.019Z,99.99
2019-01-11T01:58:25.042Z,99.99
2019-01-11T01:59:33.113Z,99.99
2019-01-11T02:00:41.135Z,99.99
2019-01-11T02:01:49.208Z,99.99
2019-01-11T02:02:57.270Z,99.99
2019-01-11T02:04:05.327Z,99.99
2019-01-11T02:05:13.356Z,99.99
2019-01-11T02:06:21.408Z,99.99
2019-01-11T02:07:29.571Z,99.99
2019-01-11T02:08:37.532Z,99.99
2019-01-11T02:09:45.582Z,99.99
2019-01-11T02:10:53.635Z,99.99
2019-01-11T02:12:01.677Z,99.99
2019-01-11T02:13:09.714Z,99.99
2019-01-11T02:14:17.769Z,99.99
2019-01-11T02:15:25.839Z,99.99
2019-01-11T02:16:33.874Z,99.99
2019-01-11T02:17:41.931Z,99.99
2019-01-11T02:18:49.984Z,99.99
2019-01-11T02:19:58.023Z,99.99
2019-01-11T02:21:06.084Z,99.99
2019-01-11T02:22:14.132Z,99.99
2019-01-11T02:23:22.199Z,99.99
2019-01-11T02:24:30.254Z,99.99
2019-01-11T02:25:38.313Z,99.99
2019-01-11T02:26:46.337Z,99.99
2019-01-11T02:27:54.380Z,99.99
2019-01-11T02:29:02.442Z,99.99
2019-01-11T02:30:10.474Z,99.99
2019-01-11T02:31:18.555Z,99.99
2019-01-11T02:32:26.600Z,99.99
2019-01-11T02:33:34.652Z,99.99
2019-01-11T02:34:42.702Z,99.99
2019-01-11T02:35:50.714Z,99.99
2019-01-11T02:36:58.808Z,99.99
2019-01-11T02:38:06.836Z,99.99
2019-01-11T02:39:14.905Z,99.99
2019-01-11T02:40:22.980Z,99.99
2019-01-11T02:41:30.986Z,99.99
2019-01-11T02:42:39.063Z,99.99
2019-01-11T02:43:47.117Z,99.99
2019-01-11T02:44:55.158Z,99.99
2019-01-11T02:46:03.214Z,99.99
2019-01-11T02:47:11.228Z,99.99
2019-01-11T02:48:19.309Z,99.99
2019-01-11T02:49:27.382Z,99.99
2019-01-11T02:50:35.422Z,99.99
2019-01-11T02:51:43.480Z,99.99
2019-01-11T02:52:51.498Z,99.99
2019-01-11T02:53:59.563Z,99.99
2019-01-11T02:55:07.618Z,99.99
2019-01-11T02:56:15.667Z,99.99
2019-01-11T02:57:23.721Z,99.99
2019-01-11T02:58:31.783Z,99.99
2019-01-11T02:59:39.828Z,99.99
2019-01-11T03:00:47.897Z,99.99
2019-01-11T03:01:55.935Z,99.99
2019-01-11T03:03:03.990Z,99.99
2019-01-11T03:04:12.036Z,99.99
2019-01-11T03:05:20.093Z,99.99
2019-01-11T03:06:28.135Z,99.99
2019-01-11T03:07:36.185Z,99.99
2019-01-11T03:08:44.253Z,99.99
2019-01-11T03:09:52.305Z,99.99
2019-01-11T03:11:00.368Z,99.99
2019-01-11T03:12:08.398Z,99.99
2019-01-11T03:13:16.435Z,99.99
2019-01-11T03:14:24.506Z,99.99
2019-01-11T03:15:32.552Z,99.99
2019-01-11T03:16:40.590Z,99.99
2019-01-11T03:17:48.674Z,99.99
2019-01-11T03:18:56.730Z,99.99
2019-01-11T03:20:04.759Z,99.99
2019-01-11T03:21:12.818Z,99.99
2019-01-11T03:22:20.838Z,99.99
2019-01-11T03:23:28.934Z,99.99
2019-01-11T03:24:36.976Z,99.99
2019-01-11T03:25:45.016Z,99.99
2019-01-11T03:26:53.064Z,99.99
2019-01-11T03:28:01.112Z,99.99
2019-01-11T03:29:09.184Z,99.99
2019-01-11T03:30:17.244Z,99.99
2019-01-11T03:31:25.304Z,99.99
2019-01-11T03:32:33.346Z,99.99
2019-01-11T03:33:41.385Z,99.99
2019-01-11T03:34:50.647Z,99.99
2019-01-11T03:35:57.485Z,99.99
2019-01-11T03:37:05.555Z,99.99
2019-01-11T03:38:13.602Z,99.99
2019-01-11T03:39:21.644Z,99.99
2019-01-11T03:40:29.702Z,99.99
2019-01-11T03:41:37.746Z,99.99
2019-01-11T03:42:45.810Z,99.99
2019-01-11T03:43:53.870Z,99.99
2019-01-11T03:45:01.934Z,99.99
2019-01-11T03:46:09.958Z,99.99
2019-01-11T03:47:18.006Z,99.99
2019-01-11T03:48:26.065Z,99.99
2019-01-11T03:49:34.110Z,99.99
2019-01-11T03:50:42.180Z,99.99
2019-01-11T03:51:50.225Z,99.99
2019-01-11T03:52:58.275Z,99.99
2019-01-11T03:54:06.336Z,99.99
2019-01-11T03:55:14.385Z,99.99
2019-01-11T03:56:22.428Z,99.99
2019-01-11T03:57:30.472Z,99.99
2019-01-11T03:58:38.549Z,99.99
2019-01-11T03:59:46.598Z,99.99
2019-01-11T04:00:54.641Z,99.99
2019-01-11T04:02:02.708Z,99.99
2019-01-11T04:03:10.725Z,99.99
2019-01-11T04:04:18.814Z,99.99
2019-01-11T04:05:26.871Z,99.99
2019-01-11T04:06:34.905Z,99.99
2019-01-11T04:07:42.951Z,99.99
2019-01-11T04:08:50.997Z,99.99
2019-01-11T04:09:59.056Z,99.99
2019-01-11T04:11:07.125Z,99.99
2019-01-11T04:12:15.167Z,99.99
2019-01-11T04:13:30.279Z,99.99
2019-01-11T04:14:31.254Z,99.99
2019-01-11T04:15:39.321Z,99.99
2019-01-11T04:16:47.391Z,99.99
2019-01-11T04:17:55.450Z,99.99
2019-01-11T04:19:03.481Z,99.99
2019-01-11T04:20:11.533Z,99.99
2019-01-11T04:21:19.591Z,99.99
2019-01-11T04:22:27.744Z,99.99
2019-01-11T04:23:35.696Z,99.99
2019-01-11T04:24:43.766Z,99.99
2019-01-11T04:25:51.799Z,99.99
2019-01-11T04:26:59.868Z,99.99
2019-01-11T04:28:07.915Z,99.99
2019-01-11T04:29:15.968Z,99.99
2019-01-11T04:30:24.018Z,99.99
2019-01-11T04:31:32.077Z,99.99
2019-01-11T04:32:40.136Z,99.99
2019-01-11T04:33:48.169Z,99.99
2019-01-11T04:34:56.227Z,99.99
2019-01-11T04:36:04.291Z,99.99
2019-01-11T04:37:12.341Z,99.99
2019-01-11T04:38:20.392Z,99.99
2019-01-11T04:39:28.445Z,99.99
2019-01-11T04:40:36.484Z,99.99
2019-01-11T04:41:44.565Z,99.99
2019-01-11T04:42:52.612Z,99.99
2019-01-11T04:44:00.629Z,99.99
2019-01-11T04:45:08.698Z,99.99
2019-01-11T04:46:16.759Z,99.99
2019-01-11T04:47:24.806Z,99.99
2019-01-11T04:48:32.855Z,99.99
2019-01-11T04:49:40.952Z,99.99
2019-01-11T04:50:48.967Z,99.99
2019-01-11T04:51:57.024Z,99.99
2019-01-11T04:53:05.077Z,99.99
2019-01-11T04:54:13.140Z,99.99
2019-01-11T04:55:21.154Z,99.99
2019-01-11T04:56:29.224Z,99.99
2019-01-11T04:57:37.292Z,99.99
2019-01-11T04:58:45.346Z,99.99
2019-01-11T04:59:53.387Z,99.99
2019-01-11T05:01:01.436Z,99.99
2019-01-11T05:02:09.500Z,99.99
2019-01-11T05:03:17.553Z,99.99
2019-01-11T05:04:25.617Z,99.99
2019-01-11T05:05:33.658Z,99.99
2019-01-11T05:06:41.711Z,99.99
2019-01-11T05:07:49.775Z,99.99
2019-01-11T05:08:57.819Z,99.99
2019-01-11T05:10:05.855Z,99.99
2019-01-11T05:11:14.707Z,99.99
2019-01-11T05:12:21.985Z,99.99
2019-01-11T05:13:30.035Z,99.99
2019-01-11T05:14:38.087Z,99.99
2019-01-11T05:15:46.144Z,99.99
2019-01-11T05:16:54.208Z,99.99
2019-01-11T05:18:02.230Z,99.99
2019-01-11T05:19:10.288Z,99.99
2019-01-11T05:20:18.355Z,99.99
2019-01-11T05:21:26.408Z,99.99
2019-01-11T05:22:34.459Z,99.99
2019-01-11T05:23:42.501Z,99.99
2019-01-11T05:24:50.556Z,99.99
2019-01-11T05:25:58.635Z,99.99
2019-01-11T05:27:06.674Z,99.99
2019-01-11T05:28:15.382Z,99.99
2019-01-11T05:29:22.776Z,99.99
2019-01-11T05:30:30.807Z,99.99
2019-01-11T05:31:38.907Z,99.99
2019-01-11T05:32:46.924Z,99.99
2019-01-11T05:33:54.988Z,99.99
2019-01-11T05:35:03.031Z,99.99
2019-01-11T05:36:11.074Z,99.99
2019-01-11T05:37:19.152Z,99.99
2019-01-11T05:38:27.199Z,99.99
2019-01-11T05:39:35.258Z,99.99
2019-01-11T05:40:43.317Z,99.99
2019-01-11T05:41:51.341Z,99.99
2019-01-11T05:42:59.416Z,99.99
2019-01-11T05:44:07.463Z,99.99
2019-01-11T05:45:15.515Z,99.99
2019-01-11T05:46:23.581Z,99.99
2019-01-11T05:47:31.877Z,99.99
2019-01-11T05:48:39.678Z,99.99
2019-01-11T05:49:47.737Z,99.99
2019-01-11T05:50:55.783Z,99.99
2019-01-11T05:52:04.104Z,99.99
2019-01-11T05:53:11.881Z,99.99
2019-01-11T05:54:19.975Z,99.99
2019-01-11T05:55:28.021Z,99.99
2019-01-11T05:56:36.324Z,99.99
2019-01-11T05:57:44.186Z,99.99
2019-01-11T05:58:52.167Z,99.99
2019-01-11T06:00:00.316Z,99.99
2019-01-11T06:01:08.262Z,99.99
2019-01-11T06:02:16.303Z,99.99
2019-01-11T06:03:24.363Z,99.99
2019-01-11T06:04:32.427Z,99.99
2019-01-11T06:05:40.456Z,99.99
2019-01-11T06:06:48.533Z,99.99
2019-01-11T06:07:56.579Z,99.99
2019-01-11T06:09:04.617Z,99.99
2019-01-11T06:10:12.691Z,99.99
2019-01-11T06:11:21.057Z,99.99
2019-01-11T06:12:28.784Z,99.99
2019-01-11T06:13:36.817Z,99.99
2019-01-11T06:14:44.909Z,99.99
2019-01-11T06:15:52.958Z,99.99
2019-01-11T06:17:00.977Z,99.99
2019-01-11T06:18:09.060Z,99.99
2019-01-11T06:19:17.118Z,99.99
2019-01-11T06:20:30.154Z,99.99
2019-01-11T06:21:33.227Z,99.99
2019-01-11T06:22:41.249Z,99.99
2019-01-11T06:23:49.622Z,99.99
2019-01-11T06:24:57.530Z,99.99
2019-01-11T06:26:05.447Z,99.99
2019-01-11T06:27:13.469Z,99.99
2019-01-11T06:28:21.531Z,99.99
2019-01-11T06:29:29.590Z,99.99
2019-01-11T06:30:37.657Z,99.99
2019-01-11T06:31:45.674Z,99.99
2019-01-11T06:32:53.753Z,99.99
2019-01-11T06:34:01.813Z,99.99
2019-01-11T06:35:09.903Z,99.99
2019-01-11T06:36:17.899Z,99.99
2019-01-11T06:37:25.969Z,99.99
2019-01-11T06:38:34.004Z,99.99
2019-01-11T06:39:42.070Z,99.99
2019-01-11T06:40:50.104Z,99.99
2019-01-11T06:41:58.215Z,99.99
2019-01-11T06:43:06.236Z,99.99
2019-01-11T06:44:14.332Z,99.99
2019-01-11T06:45:22.321Z,99.99
2019-01-11T06:46:30.367Z,99.99
2019-01-11T06:47:39.124Z,99.99
2019-01-11T06:48:46.473Z,99.99
2019-01-11T06:49:54.531Z,99.99
2019-01-11T06:51:02.617Z,99.99
2019-01-11T06:52:10.624Z,99.99
2019-01-11T06:53:18.712Z,99.99
2019-01-11T06:54:26.770Z,99.99
2019-01-11T06:55:34.853Z,99.99
2019-01-11T06:56:42.868Z,99.99
2019-01-11T06:57:50.874Z,99.99
2019-01-11T06:58:58.963Z,99.99
2019-01-11T07:00:07.049Z,99.99
2019-01-11T07:01:15.080Z,99.99
2019-01-11T07:02:23.119Z,99.99
2019-01-11T07:03:31.154Z,99.99
2019-01-11T07:04:39.211Z,99.99
2019-01-11T07:05:47.282Z,99.99
2019-01-11T07:06:55.341Z,99.99
2019-01-11T07:08:03.379Z,99.99
2019-01-11T07:09:11.471Z,99.99
2019-01-11T07:10:19.499Z,99.99
2019-01-11T07:11:27.552Z,99.99
2019-01-11T07:12:35.602Z,99.99
2019-01-11T07:13:43.694Z,99.99
2019-01-11T07:14:51.682Z,99.99
2019-01-11T07:15:59.748Z,99.99
2019-01-11T07:17:07.809Z,99.99
2019-01-11T07:18:15.855Z,99.99
2019-01-11T07:19:23.917Z,99.99
2019-01-11T07:20:31.958Z,99.99
2019-01-11T07:21:40.026Z,99.99
2019-01-11T07:22:48.066Z,99.99
2019-01-11T07:23:56.130Z,99.99
2019-01-11T07:25:04.178Z,99.99
2019-01-11T07:26:12.229Z,99.99
2019-01-11T07:27:20.281Z,99.99
2019-01-11T07:28:28.330Z,99.99
2019-01-11T07:29:36.432Z,99.99
2019-01-11T07:30:44.441Z,99.99
2019-01-11T07:31:52.496Z,99.99
2019-01-11T07:33:00.528Z,99.99
2019-01-11T07:34:08.609Z,99.99
2019-01-11T07:35:16.666Z,99.99
2019-01-11T07:36:24.723Z,99.99
2019-01-11T07:37:32.763Z,99.99
2019-01-11T07:38:40.826Z,99.99
2019-01-11T07:39:48.867Z,99.99
2019-01-11T07:40:56.920Z,99.99
2019-01-11T07:42:04.977Z,99.99
2019-01-11T07:43:13.026Z,99.99
2019-01-11T07:44:21.058Z,99.99
2019-01-11T07:45:29.141Z,99.99
2019-01-11T07:46:37.189Z,99.99
2019-01-11T07:47:45.242Z,99.99
2019-01-11T07:48:53.301Z,99.99
2019-01-11T07:50:01.333Z,99.99
2019-01-11T07:51:09.400Z,99.99
2019-01-11T07:52:17.435Z,99.99
2019-01-11T07:53:25.497Z,99.99
2019-01-11T07:54:33.578Z,99.99
2019-01-11T07:55:41.596Z,99.99
2019-01-11T07:56:49.666Z,99.99
2019-01-11T07:57:57.715Z,99.99
2019-01-11T07:59:05.761Z,99.99
2019-01-11T08:00:13.840Z,99.99
2019-01-11T08:01:21.891Z,99.99
2019-01-11T08:02:29.925Z,99.99
2019-01-11T08:03:37.974Z,99.99
2019-01-11T08:04:46.053Z,99.99
2019-01-11T08:05:54.078Z,99.99
2019-01-11T08:07:02.123Z,99.99
2019-01-11T08:08:10.197Z,99.99
2019-01-11T08:09:18.242Z,99.99
2019-01-11T08:10:26.306Z,99.99
2019-01-11T08:11:34.360Z,99.99
2019-01-11T08:12:42.408Z,99.99
2019-01-11T08:13:50.456Z,99.99
2019-01-11T08:14:58.532Z,99.99
2019-01-11T08:16:06.574Z,99.99
2019-01-11T08:17:14.623Z,99.99
2019-01-11T08:18:22.679Z,99.99
2019-01-11T08:19:30.697Z,99.99
2019-01-11T08:20:38.779Z,99.99
2019-01-11T08:21:46.840Z,99.99
2019-01-11T08:22:54.886Z,99.99
2019-01-11T08:24:02.939Z,99.99
2019-01-11T08:25:10.984Z,99.99
2019-01-11T08:26:19.047Z,99.99
2019-01-11T08:27:27.100Z,99.99
2019-01-11T08:28:35.163Z,99.99
2019-01-11T08:29:43.222Z,99.99
2019-01-11T08:30:51.245Z,99.99
2019-01-11T08:31:59.330Z,99.99
2019-01-11T08:33:07.374Z,99.99
2019-01-11T08:34:15.436Z,99.99
2019-01-11T08:35:23.486Z,99.99
2019-01-11T08:36:31.530Z,99.99
2019-01-11T08:37:39.593Z,99.99
2019-01-11T08:38:47.639Z,99.99
2019-01-11T08:39:55.703Z,99.99
2019-01-11T08:41:03.748Z,99.99
2019-01-11T08:42:11.802Z,99.99
2019-01-11T08:43:19.867Z,99.99
2019-01-11T08:44:27.921Z,99.99
2019-01-11T08:45:35.972Z,99.99
2019-01-11T08:46:44.025Z,99.99
2019-01-11T08:47:52.069Z,99.99
2019-01-11T08:49:00.124Z,99.99
2019-01-11T08:50:08.194Z,99.99
2019-01-11T08:51:16.240Z,99.99
2019-01-11T08:52:24.298Z,99.99
2019-01-11T08:53:32.340Z,99.99
2019-01-11T08:54:40.398Z,99.99
2019-01-11T08:55:48.455Z,99.99
2019-01-11T08:56:56.510Z,99.99
2019-01-11T08:58:04.568Z,99.99
2019-01-11T08:59:12.637Z,99.99
2019-01-11T09:00:20.653Z,99.99
2019-01-11T09:01:28.744Z,99.99
2019-01-11T09:02:36.800Z,99.99
2019-01-11T09:03:44.842Z,99.99
2019-01-11T09:04:52.912Z,99.99
2019-01-11T09:06:00.925Z,99.99
2019-01-11T09:07:09.015Z,99.99
2019-01-11T09:08:17.083Z,99.99
2019-01-11T09:09:25.132Z,99.99
2019-01-11T09:10:33.187Z,99.99
2019-01-11T09:11:41.212Z,99.99
2019-01-11T09:12:49.307Z,99.99
2019-01-11T09:13:57.351Z,99.99
2019-01-11T09:15:05.406Z,99.99
2019-01-11T09:16:13.458Z,99.99
2019-01-11T09:17:21.511Z,99.99
2019-01-11T09:18:29.574Z,99.99
2019-01-11T09:19:37.623Z,99.99
2019-01-11T09:20:45.674Z,99.99
2019-01-11T09:21:53.744Z,99.99
2019-01-11T09:23:01.793Z,99.99
2019-01-11T09:24:09.854Z,99.99
2019-01-11T09:25:17.901Z,99.99
2019-01-11T09:26:25.973Z,99.99
2019-01-11T09:27:34.034Z,99.99
2019-01-11T09:28:42.083Z,99.99
2019-01-11T09:29:50.141Z,99.99
2019-01-11T09:30:58.205Z,99.99
2019-01-11T09:32:06.252Z,99.99
2019-01-11T09:33:20.070Z,99.99
2019-01-11T09:34:22.374Z,99.99
2019-01-11T09:35:30.418Z,99.99
2019-01-11T09:36:38.472Z,99.99
2019-01-11T09:37:46.526Z,99.99
2019-01-11T09:38:54.574Z,99.99
2019-01-11T09:40:02.636Z,99.99
2019-01-11T09:41:10.684Z,99.99
2019-01-11T09:42:18.762Z,99.99
2019-01-11T09:43:26.802Z,99.99
2019-01-11T09:44:34.862Z,99.99
2019-01-11T09:45:42.921Z,99.99
2019-01-11T09:46:50.967Z,99.99
2019-01-11T09:47:59.047Z,99.99
2019-01-11T09:49:07.101Z,99.99
2019-01-11T09:50:15.158Z,99.99
2019-01-11T09:51:23.219Z,99.99
2019-01-11T09:52:31.245Z,99.99
2019-01-11T09:53:39.331Z,99.99
2019-01-11T09:54:47.400Z,99.99
2019-01-11T09:55:55.438Z,99.99
2019-01-11T09:57:03.506Z,99.99
2019-01-11T09:58:11.548Z,99.99
2019-01-11T09:59:19.614Z,99.99
2019-01-11T10:00:27.668Z,99.99
2019-01-11T10:01:35.739Z,99.99
2019-01-11T10:02:43.834Z,99.99
2019-01-11T10:03:51.894Z,99.99
2019-01-11T10:04:59.908Z,99.99
2019-01-11T10:06:07.958Z,99.99
2019-01-11T10:07:16.020Z,99.99
2019-01-11T10:08:24.081Z,99.99
2019-01-11T10:09:32.129Z,99.99
2019-01-11T10:10:40.179Z,99.99
2019-01-11T10:11:48.240Z,99.99
2019-01-11T10:12:56.304Z,99.99
2019-01-11T10:14:04.363Z,99.99
2019-01-11T10:15:12.467Z,99.99
2019-01-11T10:16:20.456Z,99.99
2019-01-11T10:17:28.528Z,99.99
2019-01-11T10:18:36.596Z,99.99
2019-01-11T10:19:44.646Z,99.99
2019-01-11T10:20:52.698Z,99.99
2019-01-11T10:22:00.782Z,99.99
2019-01-11T10:23:08.808Z,99.99
2019-01-11T10:24:16.877Z,99.99
2019-01-11T10:25:24.930Z,99.99
2019-01-11T10:26:33.019Z,99.99
2019-01-11T10:27:41.024Z,99.99
2019-01-11T10:28:49.117Z,99.99
2019-01-11T10:29:57.167Z,99.99
2019-01-11T10:31:05.234Z,99.99
2019-01-11T10:32:13.280Z,99.99
2019-01-11T10:33:21.348Z,99.99
2019-01-11T10:34:29.398Z,99.99
2019-01-11T10:35:37.546Z,99.99
2019-01-11T10:36:45.509Z,99.99
2019-01-11T10:37:53.580Z,99.99
2019-01-11T10:39:01.626Z,99.99
2019-01-11T10:40:09.688Z,99.99
2019-01-11T10:41:17.754Z,99.99
2019-01-11T10:42:25.799Z,99.99
2019-01-11T10:43:33.873Z,99.99
2019-01-11T10:44:41.936Z,99.99
2019-01-11T10:45:49.986Z,99.99
2019-01-11T10:46:58.041Z,99.99
2019-01-11T10:48:06.117Z,99.99
2019-01-11T10:49:14.154Z,99.99
2019-01-11T10:50:22.217Z,99.99
2019-01-11T10:51:30.285Z,99.99
2019-01-11T10:52:38.349Z,99.96
2019-01-11T10:53:46.393Z,99.99
2019-01-11T10:54:54.457Z,99.99
2019-01-11T10:56:02.514Z,99.99
2019-01-11T10:57:10.552Z,99.99
2019-01-11T10:58:18.643Z,99.99
2019-01-11T10:59:26.706Z,95.36
2019-01-11T11:00:35.558Z,99.99
2019-01-11T11:01:42.821Z,99.99
2019-01-11T11:02:50.857Z,99.99
2019-01-11T11:03:58.936Z,99.99
2019-01-11T11:05:06.992Z,99.06
2019-01-11T11:06:15.068Z,99.99
2019-01-11T11:07:23.105Z,99.99
2019-01-11T11:08:31.167Z,94.18
2019-01-11T11:09:39.249Z,99.20
2019-01-11T11:10:47.298Z,99.99
2019-01-11T11:11:55.362Z,87.07
2019-01-11T11:13:03.420Z,99.99
2019-01-11T11:14:11.459Z,90.95
2019-01-11T11:15:19.538Z,96.73
2019-01-11T11:16:27.618Z,95.50
2019-01-11T11:17:35.666Z,96.73
2019-01-11T11:18:43.717Z,96.45
2019-01-11T11:19:51.783Z,91.81
2019-01-11T11:20:59.847Z,99.20
2019-01-11T11:22:07.904Z,99.99
2019-01-11T11:23:15.965Z,99.99
2019-01-11T11:24:24.026Z,87.12
2019-01-11T11:25:32.095Z,97.49
2019-01-11T11:26:40.157Z,95.50
2019-01-11T11:27:48.205Z,90.20
2019-01-11T11:28:56.254Z,88.78
2019-01-11T11:30:04.306Z,88.82
2019-01-11T11:31:12.392Z,83.66
2019-01-11T11:32:20.447Z,93.04
2019-01-11T11:33:28.505Z,88.02
2019-01-11T11:34:36.566Z,92.28
2019-01-11T11:35:44.621Z,86.41
2019-01-11T11:36:52.684Z,86.22
2019-01-11T11:38:00.713Z,86.12
2019-01-11T11:39:08.807Z,92.28
2019-01-11T11:40:16.868Z,89.44
2019-01-11T11:41:24.909Z,89.34
2019-01-11T11:42:32.979Z,91.09
2019-01-11T11:43:41.029Z,98.39
2019-01-11T11:44:49.117Z,90.24
2019-01-11T11:45:57.171Z,87.40
2019-01-11T11:47:05.216Z,83.85
2019-01-11T11:48:13.281Z,80.53
2019-01-11T11:49:21.326Z,83.00
2019-01-11T11:50:29.412Z,87.26
2019-01-11T11:51:41.185Z,93.32
2019-01-11T11:52:45.532Z,94.46
2019-01-11T11:53:53.574Z,96.45
2019-01-11T11:55:01.642Z,91.24
2019-01-11T11:56:09.696Z,91.81
2019-01-11T11:57:17.760Z,93.61
2019-01-11T11:58:25.831Z,92.66
2019-01-11T11:59:33.887Z,90.53
2019-01-11T12:00:41.950Z,87.40
2019-01-11T12:01:52.403Z,86.08
2019-01-11T12:02:58.064Z,96.21
2019-01-11T12:04:06.125Z,98.68
2019-01-11T12:05:14.196Z,93.65
2019-01-11T12:06:22.239Z,96.31
2019-01-11T12:07:30.298Z,92.80
2019-01-11T12:08:38.369Z,99.05
2019-01-11T12:09:46.418Z,94.13
2019-01-11T12:10:54.496Z,90.25
2019-01-11T12:12:02.534Z,91.19
2019-01-11T12:13:10.588Z,92.99
2019-01-11T12:14:18.658Z,90.06
2019-01-11T12:15:26.714Z,99.24
2019-01-11T12:16:34.772Z,99.99
2019-01-11T12:17:42.822Z,95.64
2019-01-11T12:18:50.900Z,91.10
2019-01-11T12:19:58.952Z,97.25
2019-01-11T12:21:07.009Z,98.77
2019-01-11T12:22:15.070Z,95.64
2019-01-11T12:23:23.128Z,94.23
2019-01-11T12:24:31.168Z,99.99
2019-01-11T12:25:39.252Z,99.90
2019-01-11T12:26:47.289Z,99.99
2019-01-11T12:27:55.376Z,91.29
2019-01-11T12:29:03.414Z,89.49
2019-01-11T12:30:11.476Z,95.64
2019-01-11T12:31:19.548Z,94.51
2019-01-11T12:32:27.660Z,93.56
2019-01-11T12:33:35.662Z,95.64
2019-01-11T12:34:43.725Z,99.99
2019-01-11T12:35:51.778Z,93.46
2019-01-11T12:36:59.845Z,90.72
2019-01-11T12:38:13.504Z,97.16
2019-01-11T12:39:15.959Z,99.99
2019-01-11T12:40:24.014Z,95.64
2019-01-11T12:41:32.073Z,99.99
2019-01-11T12:42:40.137Z,99.99
2019-01-11T12:43:48.208Z,99.99
2019-01-11T12:44:56.258Z,90.06
2019-01-11T12:46:04.304Z,84.47
2019-01-11T12:47:12.370Z,91.19
2019-01-11T12:48:20.406Z,90.53
2019-01-11T12:49:28.733Z,90.15
2019-01-11T12:50:36.549Z,92.80
2019-01-11T12:51:44.616Z,96.16
2019-01-11T12:52:52.656Z,91.86
2019-01-11T12:54:00.727Z,91.29
2019-01-11T12:55:08.772Z,96.21
2019-01-11T12:56:16.821Z,94.89
2019-01-11T12:57:24.896Z,96.02
2019-01-11T12:58:32.955Z,99.99
2019-01-11T12:59:40.987Z,91.57
2019-01-11T13:00:49.085Z,90.67
2019-01-11T13:01:57.131Z,97.58
2019-01-11T13:03:05.180Z,99.10
2019-01-11T13:04:13.251Z,97.58
2019-01-11T13:05:21.284Z,99.99
2019-01-11T13:06:29.351Z,99.99
2019-01-11T13:07:37.416Z,99.99
2019-01-11T13:08:45.484Z,99.99
2019-01-11T13:09:53.535Z,99.85
2019-01-11T13:11:01.615Z,99.66
2019-01-11T13:12:09.662Z,99.99
2019-01-11T13:13:17.712Z,91.81
2019-01-11T13:14:25.796Z,93.13
2019-01-11T13:15:33.838Z,97.96
2019-01-11T13:16:41.891Z,97.77
2019-01-11T13:17:49.937Z,99.01
2019-01-11T13:18:58.014Z,99.76
2019-01-11T13:20:06.061Z,97.58
2019-01-11T13:21:14.136Z,99.99
2019-01-11T13:22:22.174Z,99.95
2019-01-11T13:23:30.226Z,99.19
2019-01-11T13:24:38.296Z,99.99
2019-01-11T13:25:46.353Z,98.53
2019-01-11T13:26:54.409Z,95.03
2019-01-11T13:28:02.462Z,99.99
2019-01-11T13:29:10.521Z,99.29
2019-01-11T13:30:18.585Z,99.99
2019-01-11T13:31:26.644Z,99.99
2019-01-11T13:32:34.698Z,98.72
2019-01-11T13:33:42.752Z,97.68
2019-01-11T13:34:50.823Z,99.95
2019-01-11T13:35:58.872Z,99.99
2019-01-11T13:37:06.924Z,99.01
2019-01-11T13:38:14.998Z,97.49
2019-01-11T13:39:23.051Z,99.99
2019-01-11T13:40:31.070Z,99.99
2019-01-11T13:41:39.153Z,99.99
2019-01-11T13:42:47.206Z,99.99
2019-01-11T13:43:55.290Z,99.99
2019-01-11T13:45:03.340Z,99.99
2019-01-11T13:46:11.358Z,99.99
2019-01-11T13:47:19.452Z,99.99
2019-01-11T13:48:27.504Z,99.99
2019-01-11T13:49:35.567Z,99.99
2019-01-11T13:50:43.634Z,99.99
2019-01-11T13:51:51.686Z,99.99
2019-01-11T13:52:59.739Z,99.99
2019-01-11T13:54:07.787Z,99.99
2019-01-11T13:55:15.855Z,99.99
2019-01-11T13:56:23.916Z,99.99
2019-01-11T13:57:31.966Z,99.99
2019-01-11T13:58:40.026Z,99.99
2019-01-11T13:59:48.090Z,99.99
2019-01-11T14:00:56.153Z,99.99
2019-01-11T14:02:04.206Z,99.99
2019-01-11T14:03:12.256Z,99.99
2019-01-11T14:04:20.300Z,99.99
2019-01-11T14:05:28.380Z,99.99
2019-01-11T14:06:36.428Z,99.99
2019-01-11T14:07:44.494Z,99.99
2019-01-11T14:08:52.552Z,99.99
2019-01-11T14:10:00.585Z,99.99
2019-01-11T14:11:08.672Z,99.99
2019-01-11T14:12:16.716Z,99.99
2019-01-11T14:13:24.834Z,99.99
2019-01-11T14:14:32.841Z,99.99
2019-01-11T14:15:40.867Z,99.99
2019-01-11T14:16:48.940Z,99.99
2019-01-11T14:17:57.006Z,99.99
2019-01-11T14:19:05.070Z,99.99
2019-01-11T14:20:13.133Z,99.99
2019-01-11T14:21:21.212Z,99.99
2019-01-11T14:22:29.236Z,99.99
2019-01-11T14:23:37.301Z,99.99
2019-01-11T14:24:45.350Z,99.99
2019-01-11T14:25:53.419Z,99.99
2019-01-11T14:27:01.455Z,99.99
2019-01-11T14:28:09.530Z,99.99
2019-01-11T14:29:17.593Z,99.99
2019-01-11T14:30:25.629Z,99.99
2019-01-11T14:31:33.690Z,99.99
2019-01-11T14:32:41.741Z,99.99
2019-01-11T14:33:49.800Z,99.99
2019-01-11T14:34:57.863Z,99.99
2019-01-11T14:36:05.930Z,99.99